Terminal Aerodrome Forecast
Issued by NWS

Home | Current Version | Previous Version | Text Only | Print | Product List | Glossary On
Versions: 1 2 3 4 5 6 7 8 9 10 11 12 13 14
000
FTUS45 KFGZ 062331
TAFGCN
TAF
KGCN 062331Z 0700/0724 25012KT P6SM SCT070 BKN100
      TEMPO 0700/0702 VRB15G25KT 5SM -TSRA BKN060CB
     FM070300 VRB03KT P6SM FEW070 BKN120
     FM071600 VRB02KT P6SM SCT120 PROB30 0718/0724 -TSRA BKN080CB=

USA.gov is the U.S. government's official web portal to all federal, state and local government web resources and services.